Edna, Iowa
Current Conditions -  °F | °C
As of 10:14 PM on Saturday 25 Oct 2014 (Local Time) from KLYV Reporting Station
Clear Clear  
Wind Chill: 43°   Ceiling: Unl
Heat Index: 43°   Visibility: 10mi
Dew Point: 34°   Wind: 0mph
Humidity: 70%   Direction: NA
Pressure: 30.08"   Gusts: NA
Location:  43.4311°N, 96.1812°W
Report Text: KLYV 260314Z AUTO 00000KT 10SM CLR 06/01 A3008 RMK AO2
Loading
Personal Weather Stations






























Interactive Weather Map
Tropical Storm Tracking
New forecast layout! Learn more

10-Day Weather Forecast

Advertisements
Track Severe Weather on mobile